sensor_id;sensor_type;location;lat;lon;timestamp;P1;durP1;ratioP1;P2;durP2;ratioP2
79143;SDS011;68551;47.484;19.092;2023-06-22T00:05:05;6.93;;;4.55;;
79143;SDS011;68551;47.484;19.092;2023-06-22T00:08:08;10.60;;;4.90;;
79143;SDS011;68551;47.484;19.092;2023-06-22T00:11:10;7.75;;;4.53;;
79143;SDS011;68551;47.484;19.092;2023-06-22T00:14:13;8.88;;;5.10;;
79143;SDS011;68551;47.484;19.092;2023-06-22T00:17:15;9.23;;;5.25;;
79143;SDS011;68551;47.484;19.092;2023-06-22T00:20:23;9.80;;;5.50;;
79143;SDS011;68551;47.484;19.092;2023-06-22T00:23:30;7.95;;;5.22;;
79143;SDS011;68551;47.484;19.092;2023-06-22T00:26:36;9.77;;;5.50;;
79143;SDS011;68551;47.484;19.092;2023-06-22T00:29:44;9.55;;;5.22;;
79143;SDS011;68551;47.484;19.092;2023-06-22T00:32:49;12.75;;;6.03;;
79143;SDS011;68551;47.484;19.092;2023-06-22T00:35:51;11.02;;;4.95;;
79143;SDS011;68551;47.484;19.092;2023-06-22T00:38:55;13.63;;;5.97;;
79143;SDS011;68551;47.484;19.092;2023-06-22T00:41:57;10.25;;;5.32;;
79143;SDS011;68551;47.484;19.092;2023-06-22T00:45:05;10.55;;;5.20;;
79143;SDS011;68551;47.484;19.092;2023-06-22T00:48:08;9.85;;;5.28;;
79143;SDS011;68551;47.484;19.092;2023-06-22T00:51:10;9.88;;;5.70;;
79143;SDS011;68551;47.484;19.092;2023-06-22T00:54:13;8.60;;;5.25;;
79143;SDS011;68551;47.484;19.092;2023-06-22T00:57:16;10.80;;;5.28;;
79143;SDS011;68551;47.484;19.092;2023-06-22T01:00:20;6.07;;;4.35;;
79143;SDS011;68551;47.484;19.092;2023-06-22T01:03:25;12.40;;;5.13;;
79143;SDS011;68551;47.484;19.092;2023-06-22T01:06:29;8.20;;;5.20;;
79143;SDS011;68551;47.484;19.092;2023-06-22T01:09:44;10.65;;;5.22;;
79143;SDS011;68551;47.484;19.092;2023-06-22T01:13:16;11.38;;;5.78;;
79143;SDS011;68551;47.484;19.092;2023-06-22T01:16:30;8.70;;;4.95;;
79143;SDS011;68551;47.484;19.092;2023-06-22T01:22:50;7.70;;;4.97;;
79143;SDS011;68551;47.484;19.092;2023-06-22T01:29:16;9.35;;;5.78;;
79143;SDS011;68551;47.484;19.092;2023-06-22T01:32:23;7.72;;;5.13;;
79143;SDS011;68551;47.484;19.092;2023-06-22T01:35:28;9.68;;;5.63;;
79143;SDS011;68551;47.484;19.092;2023-06-22T01:38:37;10.48;;;5.10;;
79143;SDS011;68551;47.484;19.092;2023-06-22T01:41:45;9.93;;;5.93;;
79143;SDS011;68551;47.484;19.092;2023-06-22T01:44:53;9.70;;;5.65;;
79143;SDS011;68551;47.484;19.092;2023-06-22T01:47:55;7.47;;;6.05;;
79143;SDS011;68551;47.484;19.092;2023-06-22T01:50:58;8.95;;;5.53;;
79143;SDS011;68551;47.484;19.092;2023-06-22T01:54:07;10.93;;;5.28;;
79143;SDS011;68551;47.484;19.092;2023-06-22T01:57:16;13.65;;;6.68;;
79143;SDS011;68551;47.484;19.092;2023-06-22T02:00:23;13.02;;;6.03;;
79143;SDS011;68551;47.484;19.092;2023-06-22T02:03:38;8.70;;;6.07;;
79143;SDS011;68551;47.484;19.092;2023-06-22T02:06:50;9.15;;;6.22;;
79143;SDS011;68551;47.484;19.092;2023-06-22T02:09:56;11.70;;;6.18;;
79143;SDS011;68551;47.484;19.092;2023-06-22T02:13:00;11.18;;;6.07;;
79143;SDS011;68551;47.484;19.092;2023-06-22T02:16:12;10.10;;;6.22;;
79143;SDS011;68551;47.484;19.092;2023-06-22T02:19:22;10.95;;;5.90;;
79143;SDS011;68551;47.484;19.092;2023-06-22T02:22:25;10.25;;;5.57;;
79143;SDS011;68551;47.484;19.092;2023-06-22T02:25:27;14.10;;;6.72;;
79143;SDS011;68551;47.484;19.092;2023-06-22T02:28:30;9.75;;;5.95;;
79143;SDS011;68551;47.484;19.092;2023-06-22T02:31:35;9.30;;;5.60;;
79143;SDS011;68551;47.484;19.092;2023-06-22T02:34:44;8.02;;;6.10;;
79143;SDS011;68551;47.484;19.092;2023-06-22T02:37:50;8.02;;;5.45;;
79143;SDS011;68551;47.484;19.092;2023-06-22T02:40:53;11.80;;;6.97;;
79143;SDS011;68551;47.484;19.092;2023-06-22T02:43:56;11.35;;;5.57;;
79143;SDS011;68551;47.484;19.092;2023-06-22T02:47:00;9.40;;;5.25;;
79143;SDS011;68551;47.484;19.092;2023-06-22T02:50:04;7.72;;;5.93;;
79143;SDS011;68551;47.484;19.092;2023-06-22T02:53:08;10.48;;;6.32;;
79143;SDS011;68551;47.484;19.092;2023-06-22T02:56:17;9.25;;;5.85;;
79143;SDS011;68551;47.484;19.092;2023-06-22T02:59:31;9.73;;;5.60;;
79143;SDS011;68551;47.484;19.092;2023-06-22T03:02:46;11.45;;;5.50;;
79143;SDS011;68551;47.484;19.092;2023-06-22T03:05:52;10.93;;;6.82;;
79143;SDS011;68551;47.484;19.092;2023-06-22T03:08:59;9.85;;;6.28;;
79143;SDS011;68551;47.484;19.092;2023-06-22T03:15:15;9.90;;;5.57;;
79143;SDS011;68551;47.484;19.092;2023-06-22T03:18:19;8.70;;;5.80;;
79143;SDS011;68551;47.484;19.092;2023-06-22T03:21:27;9.73;;;6.30;;
79143;SDS011;68551;47.484;19.092;2023-06-22T03:24:30;9.48;;;6.35;;
79143;SDS011;68551;47.484;19.092;2023-06-22T03:27:36;12.57;;;6.35;;
79143;SDS011;68551;47.484;19.092;2023-06-22T03:30:44;9.18;;;6.70;;
79143;SDS011;68551;47.484;19.092;2023-06-22T03:33:47;11.10;;;6.60;;
79143;SDS011;68551;47.484;19.092;2023-06-22T03:36:52;10.52;;;6.13;;
79143;SDS011;68551;47.484;19.092;2023-06-22T03:39:57;11.00;;;6.43;;
79143;SDS011;68551;47.484;19.092;2023-06-22T03:43:06;14.27;;;7.63;;
79143;SDS011;68551;47.484;19.092;2023-06-22T03:46:10;11.85;;;7.25;;
79143;SDS011;68551;47.484;19.092;2023-06-22T03:49:12;12.10;;;6.38;;
79143;SDS011;68551;47.484;19.092;2023-06-22T03:52:18;14.80;;;6.93;;
79143;SDS011;68551;47.484;19.092;2023-06-22T03:55:23;12.40;;;6.88;;
79143;SDS011;68551;47.484;19.092;2023-06-22T03:58:26;14.63;;;7.20;;
79143;SDS011;68551;47.484;19.092;2023-06-22T04:01:31;13.73;;;6.95;;
79143;SDS011;68551;47.484;19.092;2023-06-22T04:04:33;12.63;;;6.60;;
79143;SDS011;68551;47.484;19.092;2023-06-22T04:07:38;12.40;;;7.20;;
79143;SDS011;68551;47.484;19.092;2023-06-22T04:10:44;12.15;;;6.80;;
79143;SDS011;68551;47.484;19.092;2023-06-22T04:13:50;13.68;;;6.35;;
79143;SDS011;68551;47.484;19.092;2023-06-22T04:19:58;14.13;;;6.55;;
79143;SDS011;68551;47.484;19.092;2023-06-22T04:23:00;11.73;;;6.13;;
79143;SDS011;68551;47.484;19.092;2023-06-22T04:26:02;14.77;;;7.35;;
79143;SDS011;68551;47.484;19.092;2023-06-22T04:29:04;9.60;;;6.82;;
79143;SDS011;68551;47.484;19.092;2023-06-22T04:32:07;10.68;;;6.63;;
79143;SDS011;68551;47.484;19.092;2023-06-22T04:35:14;12.40;;;6.57;;
79143;SDS011;68551;47.484;19.092;2023-06-22T04:38:17;12.00;;;7.75;;
79143;SDS011;68551;47.484;19.092;2023-06-22T04:41:22;11.85;;;7.32;;
79143;SDS011;68551;47.484;19.092;2023-06-22T04:44:29;11.18;;;7.28;;
79143;SDS011;68551;47.484;19.092;2023-06-22T04:47:32;13.23;;;6.55;;
79143;SDS011;68551;47.484;19.092;2023-06-22T04:50:34;13.27;;;7.28;;
79143;SDS011;68551;47.484;19.092;2023-06-22T04:53:36;13.93;;;7.68;;
79143;SDS011;68551;47.484;19.092;2023-06-22T04:56:41;11.63;;;6.55;;
79143;SDS011;68551;47.484;19.092;2023-06-22T04:59:46;10.85;;;6.80;;
79143;SDS011;68551;47.484;19.092;2023-06-22T05:02:50;12.43;;;7.40;;
79143;SDS011;68551;47.484;19.092;2023-06-22T05:05:59;10.73;;;7.25;;
79143;SDS011;68551;47.484;19.092;2023-06-22T05:09:04;10.18;;;7.32;;
79143;SDS011;68551;47.484;19.092;2023-06-22T05:12:10;9.68;;;6.95;;
79143;SDS011;68551;47.484;19.092;2023-06-22T05:15:13;12.93;;;7.88;;
79143;SDS011;68551;47.484;19.092;2023-06-22T05:18:19;13.07;;;7.13;;
79143;SDS011;68551;47.484;19.092;2023-06-22T05:21:26;9.65;;;5.97;;
79143;SDS011;68551;47.484;19.092;2023-06-22T05:24:34;8.50;;;5.28;;
79143;SDS011;68551;47.484;19.092;2023-06-22T05:27:37;8.95;;;5.80;;
79143;SDS011;68551;47.484;19.092;2023-06-22T05:30:44;11.52;;;5.28;;
79143;SDS011;68551;47.484;19.092;2023-06-22T05:33:49;9.27;;;5.22;;
79143;SDS011;68551;47.484;19.092;2023-06-22T05:37:00;7.47;;;5.15;;
79143;SDS011;68551;47.484;19.092;2023-06-22T05:40:02;11.55;;;5.47;;
79143;SDS011;68551;47.484;19.092;2023-06-22T05:43:09;8.02;;;4.70;;
79143;SDS011;68551;47.484;19.092;2023-06-22T05:46:11;12.43;;;5.60;;
79143;SDS011;68551;47.484;19.092;2023-06-22T05:49:16;8.63;;;4.20;;
79143;SDS011;68551;47.484;19.092;2023-06-22T05:52:18;8.00;;;4.55;;
79143;SDS011;68551;47.484;19.092;2023-06-22T05:55:23;7.97;;;5.05;;
79143;SDS011;68551;47.484;19.092;2023-06-22T05:58:28;9.68;;;4.95;;
79143;SDS011;68551;47.484;19.092;2023-06-22T06:01:30;11.18;;;5.15;;
79143;SDS011;68551;47.484;19.092;2023-06-22T06:04:38;10.77;;;4.95;;
79143;SDS011;68551;47.484;19.092;2023-06-22T06:07:40;9.23;;;4.78;;
79143;SDS011;68551;47.484;19.092;2023-06-22T06:10:43;9.07;;;5.20;;
79143;SDS011;68551;47.484;19.092;2023-06-22T06:13:45;8.63;;;4.93;;
79143;SDS011;68551;47.484;19.092;2023-06-22T06:16:48;14.30;;;4.78;;
79143;SDS011;68551;47.484;19.092;2023-06-22T06:19:51;8.60;;;4.65;;
79143;SDS011;68551;47.484;19.092;2023-06-22T06:26:00;10.90;;;4.50;;
79143;SDS011;68551;47.484;19.092;2023-06-22T06:29:04;7.70;;;3.83;;
79143;SDS011;68551;47.484;19.092;2023-06-22T06:32:09;8.65;;;3.83;;
79143;SDS011;68551;47.484;19.092;2023-06-22T06:35:14;8.93;;;4.43;;
79143;SDS011;68551;47.484;19.092;2023-06-22T06:38:18;10.88;;;4.20;;
79143;SDS011;68551;47.484;19.092;2023-06-22T06:41:23;10.23;;;3.78;;
79143;SDS011;68551;47.484;19.092;2023-06-22T06:47:29;6.68;;;4.03;;
79143;SDS011;68551;47.484;19.092;2023-06-22T06:50:34;6.68;;;3.60;;
79143;SDS011;68551;47.484;19.092;2023-06-22T06:56:41;6.38;;;3.75;;
79143;SDS011;68551;47.484;19.092;2023-06-22T06:59:49;7.53;;;4.28;;
79143;SDS011;68551;47.484;19.092;2023-06-22T07:02:52;6.88;;;3.80;;
79143;SDS011;68551;47.484;19.092;2023-06-22T07:05:54;6.70;;;3.50;;
79143;SDS011;68551;47.484;19.092;2023-06-22T07:09:02;8.57;;;3.42;;
79143;SDS011;68551;47.484;19.092;2023-06-22T07:12:05;6.15;;;3.45;;
79143;SDS011;68551;47.484;19.092;2023-06-22T07:15:11;6.68;;;3.45;;
79143;SDS011;68551;47.484;19.092;2023-06-22T07:18:17;10.23;;;3.33;;
79143;SDS011;68551;47.484;19.092;2023-06-22T07:21:21;6.65;;;3.15;;
79143;SDS011;68551;47.484;19.092;2023-06-22T07:24:23;6.22;;;3.60;;
79143;SDS011;68551;47.484;19.092;2023-06-22T07:27:34;8.30;;;3.85;;
79143;SDS011;68551;47.484;19.092;2023-06-22T07:30:39;8.27;;;3.55;;
79143;SDS011;68551;47.484;19.092;2023-06-22T07:33:46;6.53;;;3.50;;
79143;SDS011;68551;47.484;19.092;2023-06-22T07:36:51;6.28;;;3.40;;
79143;SDS011;68551;47.484;19.092;2023-06-22T07:39:59;6.88;;;3.80;;
79143;SDS011;68551;47.484;19.092;2023-06-22T07:43:06;8.73;;;3.97;;
79143;SDS011;68551;47.484;19.092;2023-06-22T07:49:12;6.47;;;4.07;;
79143;SDS011;68551;47.484;19.092;2023-06-22T07:52:15;6.68;;;3.80;;
79143;SDS011;68551;47.484;19.092;2023-06-22T07:55:22;6.70;;;3.60;;
79143;SDS011;68551;47.484;19.092;2023-06-22T07:58:25;7.03;;;3.95;;
79143;SDS011;68551;47.484;19.092;2023-06-22T08:01:32;7.72;;;3.47;;
79143;SDS011;68551;47.484;19.092;2023-06-22T08:04:39;6.65;;;3.45;;
79143;SDS011;68551;47.484;19.092;2023-06-22T08:07:43;6.38;;;3.53;;
79143;SDS011;68551;47.484;19.092;2023-06-22T08:10:49;7.05;;;4.13;;
79143;SDS011;68551;47.484;19.092;2023-06-22T08:13:51;6.82;;;4.03;;
79143;SDS011;68551;47.484;19.092;2023-06-22T08:16:56;6.72;;;4.18;;
79143;SDS011;68551;47.484;19.092;2023-06-22T08:19:59;7.07;;;4.00;;
79143;SDS011;68551;47.484;19.092;2023-06-22T08:23:07;7.45;;;4.70;;
79143;SDS011;68551;47.484;19.092;2023-06-22T08:26:15;8.30;;;4.70;;
79143;SDS011;68551;47.484;19.092;2023-06-22T08:29:23;7.90;;;4.57;;
79143;SDS011;68551;47.484;19.092;2023-06-22T08:32:27;8.13;;;4.80;;
79143;SDS011;68551;47.484;19.092;2023-06-22T08:35:31;7.43;;;4.35;;
79143;SDS011;68551;47.484;19.092;2023-06-22T08:38:33;6.55;;;5.05;;
79143;SDS011;68551;47.484;19.092;2023-06-22T08:41:38;8.35;;;5.18;;
79143;SDS011;68551;47.484;19.092;2023-06-22T08:44:40;9.07;;;5.22;;
79143;SDS011;68551;47.484;19.092;2023-06-22T08:47:45;9.88;;;5.75;;
79143;SDS011;68551;47.484;19.092;2023-06-22T08:50:47;7.47;;;5.30;;
79143;SDS011;68551;47.484;19.092;2023-06-22T08:53:55;6.40;;;5.43;;
79143;SDS011;68551;47.484;19.092;2023-06-22T08:56:57;7.95;;;5.72;;
79143;SDS011;68551;47.484;19.092;2023-06-22T09:00:00;7.32;;;4.95;;
79143;SDS011;68551;47.484;19.092;2023-06-22T09:03:06;8.20;;;5.30;;
79143;SDS011;68551;47.484;19.092;2023-06-22T09:06:12;7.47;;;6.05;;
79143;SDS011;68551;47.484;19.092;2023-06-22T09:09:18;9.60;;;6.60;;
79143;SDS011;68551;47.484;19.092;2023-06-22T09:12:21;7.60;;;5.95;;
79143;SDS011;68551;47.484;19.092;2023-06-22T09:15:27;9.60;;;6.18;;
79143;SDS011;68551;47.484;19.092;2023-06-22T09:18:30;7.47;;;6.03;;
79143;SDS011;68551;47.484;19.092;2023-06-22T09:21:32;11.82;;;6.10;;
79143;SDS011;68551;47.484;19.092;2023-06-22T09:24:35;9.60;;;6.03;;
79143;SDS011;68551;47.484;19.092;2023-06-22T09:27:38;7.00;;;6.30;;
79143;SDS011;68551;47.484;19.092;2023-06-22T09:30:42;6.80;;;6.13;;
79143;SDS011;68551;47.484;19.092;2023-06-22T09:33:47;7.88;;;6.85;;
79143;SDS011;68551;47.484;19.092;2023-06-22T09:36:51;8.70;;;6.82;;
79143;SDS011;68551;47.484;19.092;2023-06-22T09:39:56;8.30;;;6.50;;
79143;SDS011;68551;47.484;19.092;2023-06-22T09:43:01;8.40;;;6.53;;
79143;SDS011;68551;47.484;19.092;2023-06-22T09:46:04;9.93;;;6.50;;
79143;SDS011;68551;47.484;19.092;2023-06-22T09:49:06;7.53;;;6.55;;
79143;SDS011;68551;47.484;19.092;2023-06-22T09:52:11;6.95;;;6.25;;
79143;SDS011;68551;47.484;19.092;2023-06-22T09:55:16;9.68;;;6.55;;
79143;SDS011;68551;47.484;19.092;2023-06-22T09:58:19;7.90;;;7.10;;
79143;SDS011;68551;47.484;19.092;2023-06-22T10:01:21;10.82;;;6.93;;
79143;SDS011;68551;47.484;19.092;2023-06-22T10:04:24;9.02;;;6.75;;
79143;SDS011;68551;47.484;19.092;2023-06-22T10:07:27;8.90;;;6.97;;
79143;SDS011;68551;47.484;19.092;2023-06-22T10:10:38;8.20;;;6.35;;
79143;SDS011;68551;47.484;19.092;2023-06-22T10:13:42;7.68;;;6.93;;
79143;SDS011;68551;47.484;19.092;2023-06-22T10:16:51;12.43;;;6.82;;
79143;SDS011;68551;47.484;19.092;2023-06-22T10:20:02;9.23;;;6.75;;
79143;SDS011;68551;47.484;19.092;2023-06-22T10:23:14;9.00;;;7.43;;
79143;SDS011;68551;47.484;19.092;2023-06-22T10:26:19;10.98;;;7.03;;
79143;SDS011;68551;47.484;19.092;2023-06-22T10:29:24;11.98;;;7.35;;
79143;SDS011;68551;47.484;19.092;2023-06-22T10:32:26;12.27;;;7.00;;
79143;SDS011;68551;47.484;19.092;2023-06-22T10:35:30;10.95;;;7.18;;
79143;SDS011;68551;47.484;19.092;2023-06-22T10:38:35;10.13;;;7.18;;
79143;SDS011;68551;47.484;19.092;2023-06-22T10:41:38;8.23;;;6.90;;
79143;SDS011;68551;47.484;19.092;2023-06-22T10:44:40;8.32;;;7.38;;
79143;SDS011;68551;47.484;19.092;2023-06-22T10:47:48;11.18;;;7.47;;
79143;SDS011;68551;47.484;19.092;2023-06-22T10:50:51;11.45;;;7.60;;
79143;SDS011;68551;47.484;19.092;2023-06-22T10:53:55;8.00;;;7.13;;
79143;SDS011;68551;47.484;19.092;2023-06-22T10:57:00;8.95;;;6.88;;
79143;SDS011;68551;47.484;19.092;2023-06-22T11:00:02;12.40;;;7.55;;
79143;SDS011;68551;47.484;19.092;2023-06-22T11:03:08;8.88;;;6.65;;
79143;SDS011;68551;47.484;19.092;2023-06-22T11:06:15;12.85;;;7.28;;
79143;SDS011;68551;47.484;19.092;2023-06-22T11:09:19;9.65;;;7.15;;
79143;SDS011;68551;47.484;19.092;2023-06-22T11:12:30;8.20;;;7.20;;
79143;SDS011;68551;47.484;19.092;2023-06-22T11:15:32;8.20;;;7.38;;
79143;SDS011;68551;47.484;19.092;2023-06-22T11:18:35;10.60;;;6.88;;
79143;SDS011;68551;47.484;19.092;2023-06-22T11:21:38;9.98;;;7.78;;
79143;SDS011;68551;47.484;19.092;2023-06-22T11:24:41;10.90;;;6.78;;
79143;SDS011;68551;47.484;19.092;2023-06-22T11:27:43;9.10;;;6.82;;
79143;SDS011;68551;47.484;19.092;2023-06-22T11:33:53;9.13;;;7.22;;
79143;SDS011;68551;47.484;19.092;2023-06-22T11:39:59;8.32;;;7.40;;
79143;SDS011;68551;47.484;19.092;2023-06-22T11:43:09;10.32;;;7.13;;
79143;SDS011;68551;47.484;19.092;2023-06-22T11:46:11;8.60;;;7.30;;
79143;SDS011;68551;47.484;19.092;2023-06-22T11:49:14;8.25;;;7.03;;
79143;SDS011;68551;47.484;19.092;2023-06-22T11:52:16;9.98;;;7.05;;
79143;SDS011;68551;47.484;19.092;2023-06-22T11:55:21;9.40;;;6.90;;
79143;SDS011;68551;47.484;19.092;2023-06-22T11:58:25;8.35;;;6.30;;
79143;SDS011;68551;47.484;19.092;2023-06-22T12:01:28;8.88;;;7.28;;
79143;SDS011;68551;47.484;19.092;2023-06-22T12:07:35;10.98;;;6.88;;
79143;SDS011;68551;47.484;19.092;2023-06-22T12:10:37;10.18;;;6.45;;
79143;SDS011;68551;47.484;19.092;2023-06-22T12:13:45;10.15;;;6.68;;
79143;SDS011;68551;47.484;19.092;2023-06-22T12:16:50;8.48;;;6.22;;
79143;SDS011;68551;47.484;19.092;2023-06-22T12:19:52;7.78;;;6.32;;
79143;SDS011;68551;47.484;19.092;2023-06-22T12:22:54;8.57;;;6.60;;
79143;SDS011;68551;47.484;19.092;2023-06-22T12:25:58;8.95;;;7.15;;
79143;SDS011;68551;47.484;19.092;2023-06-22T12:29:01;9.15;;;7.22;;
79143;SDS011;68551;47.484;19.092;2023-06-22T12:32:04;8.32;;;7.40;;
79143;SDS011;68551;47.484;19.092;2023-06-22T12:35:07;8.95;;;7.18;;
79143;SDS011;68551;47.484;19.092;2023-06-22T12:38:18;9.73;;;6.72;;
79143;SDS011;68551;47.484;19.092;2023-06-22T12:41:21;9.88;;;6.20;;
79143;SDS011;68551;47.484;19.092;2023-06-22T12:44:25;8.00;;;6.78;;
79143;SDS011;68551;47.484;19.092;2023-06-22T12:47:28;11.68;;;7.93;;
79143;SDS011;68551;47.484;19.092;2023-06-22T12:50:32;8.65;;;7.22;;
79143;SDS011;68551;47.484;19.092;2023-06-22T12:53:35;11.35;;;6.88;;
79143;SDS011;68551;47.484;19.092;2023-06-22T12:56:41;8.27;;;7.13;;
79143;SDS011;68551;47.484;19.092;2023-06-22T12:59:47;10.05;;;7.20;;
79143;SDS011;68551;47.484;19.092;2023-06-22T13:02:50;8.07;;;6.70;;
79143;SDS011;68551;47.484;19.092;2023-06-22T13:05:57;11.23;;;6.80;;
79143;SDS011;68551;47.484;19.092;2023-06-22T13:09:05;9.15;;;6.97;;
79143;SDS011;68551;47.484;19.092;2023-06-22T13:12:24;8.25;;;7.03;;
79143;SDS011;68551;47.484;19.092;2023-06-22T13:15:29;9.68;;;7.07;;
79143;SDS011;68551;47.484;19.092;2023-06-22T13:18:31;9.52;;;8.02;;
79143;SDS011;68551;47.484;19.092;2023-06-22T13:21:40;8.82;;;6.68;;
79143;SDS011;68551;47.484;19.092;2023-06-22T13:24:44;7.15;;;6.28;;
79143;SDS011;68551;47.484;19.092;2023-06-22T13:27:47;9.77;;;7.13;;
79143;SDS011;68551;47.484;19.092;2023-06-22T13:30:52;8.05;;;6.95;;
79143;SDS011;68551;47.484;19.092;2023-06-22T13:33:54;9.40;;;7.30;;
79143;SDS011;68551;47.484;19.092;2023-06-22T13:36:59;7.80;;;6.40;;
79143;SDS011;68551;47.484;19.092;2023-06-22T13:40:09;8.85;;;6.88;;
79143;SDS011;68551;47.484;19.092;2023-06-22T13:43:14;9.52;;;7.35;;
79143;SDS011;68551;47.484;19.092;2023-06-22T13:46:17;8.88;;;6.88;;
79143;SDS011;68551;47.484;19.092;2023-06-22T13:49:20;9.98;;;6.53;;
79143;SDS011;68551;47.484;19.092;2023-06-22T13:52:28;9.95;;;6.25;;
79143;SDS011;68551;47.484;19.092;2023-06-22T13:55:31;11.10;;;6.95;;
79143;SDS011;68551;47.484;19.092;2023-06-22T13:58:33;8.23;;;7.25;;
79143;SDS011;68551;47.484;19.092;2023-06-22T14:01:36;9.13;;;6.82;;
79143;SDS011;68551;47.484;19.092;2023-06-22T14:04:38;9.38;;;7.28;;
79143;SDS011;68551;47.484;19.092;2023-06-22T14:07:43;10.63;;;7.45;;
79143;SDS011;68551;47.484;19.092;2023-06-22T14:10:49;10.02;;;6.97;;
79143;SDS011;68551;47.484;19.092;2023-06-22T14:13:57;8.52;;;6.93;;
79143;SDS011;68551;47.484;19.092;2023-06-22T14:17:00;8.75;;;6.95;;
79143;SDS011;68551;47.484;19.092;2023-06-22T14:20:05;9.52;;;6.88;;
79143;SDS011;68551;47.484;19.092;2023-06-22T14:23:14;9.85;;;7.00;;
79143;SDS011;68551;47.484;19.092;2023-06-22T14:29:22;10.05;;;7.28;;
79143;SDS011;68551;47.484;19.092;2023-06-22T14:32:28;8.45;;;7.25;;
79143;SDS011;68551;47.484;19.092;2023-06-22T14:35:34;7.28;;;6.50;;
79143;SDS011;68551;47.484;19.092;2023-06-22T14:38:36;9.45;;;6.68;;
79143;SDS011;68551;47.484;19.092;2023-06-22T14:41:42;8.23;;;6.95;;
79143;SDS011;68551;47.484;19.092;2023-06-22T14:44:44;7.95;;;6.20;;
79143;SDS011;68551;47.484;19.092;2023-06-22T14:47:47;9.30;;;6.38;;
79143;SDS011;68551;47.484;19.092;2023-06-22T14:50:49;7.97;;;6.43;;
79143;SDS011;68551;47.484;19.092;2023-06-22T14:53:51;10.32;;;7.05;;
79143;SDS011;68551;47.484;19.092;2023-06-22T14:56:54;11.95;;;7.93;;
79143;SDS011;68551;47.484;19.092;2023-06-22T14:59:56;9.25;;;6.68;;
79143;SDS011;68551;47.484;19.092;2023-06-22T15:02:59;10.82;;;6.72;;
79143;SDS011;68551;47.484;19.092;2023-06-22T15:06:04;7.57;;;6.68;;
79143;SDS011;68551;47.484;19.092;2023-06-22T15:09:09;10.52;;;7.20;;
79143;SDS011;68551;47.484;19.092;2023-06-22T15:12:14;9.95;;;6.15;;
79143;SDS011;68551;47.484;19.092;2023-06-22T15:15:20;9.40;;;6.80;;
79143;SDS011;68551;47.484;19.092;2023-06-22T15:18:25;10.82;;;7.38;;
79143;SDS011;68551;47.484;19.092;2023-06-22T15:21:30;11.40;;;6.50;;
79143;SDS011;68551;47.484;19.092;2023-06-22T15:24:38;9.48;;;6.55;;
79143;SDS011;68551;47.484;19.092;2023-06-22T15:27:43;9.45;;;6.55;;
79143;SDS011;68551;47.484;19.092;2023-06-22T15:30:50;11.45;;;6.80;;
79143;SDS011;68551;47.484;19.092;2023-06-22T15:34:00;10.32;;;6.78;;
79143;SDS011;68551;47.484;19.092;2023-06-22T15:37:07;9.20;;;6.85;;
79143;SDS011;68551;47.484;19.092;2023-06-22T15:40:10;10.05;;;7.18;;
79143;SDS011;68551;47.484;19.092;2023-06-22T15:43:14;8.27;;;6.72;;
79143;SDS011;68551;47.484;19.092;2023-06-22T15:46:19;9.55;;;7.63;;
79143;SDS011;68551;47.484;19.092;2023-06-22T15:49:25;8.48;;;7.25;;
79143;SDS011;68551;47.484;19.092;2023-06-22T15:52:29;8.30;;;6.55;;
79143;SDS011;68551;47.484;19.092;2023-06-22T15:55:32;7.72;;;6.53;;
79143;SDS011;68551;47.484;19.092;2023-06-22T15:58:36;10.70;;;6.53;;
79143;SDS011;68551;47.484;19.092;2023-06-22T16:01:41;10.73;;;6.65;;
79143;SDS011;68551;47.484;19.092;2023-06-22T16:04:44;10.25;;;7.93;;
79143;SDS011;68551;47.484;19.092;2023-06-22T16:10:59;9.20;;;7.38;;
79143;SDS011;68551;47.484;19.092;2023-06-22T16:14:07;11.60;;;7.78;;
79143;SDS011;68551;47.484;19.092;2023-06-22T16:17:11;10.73;;;6.88;;
79143;SDS011;68551;47.484;19.092;2023-06-22T16:20:14;9.63;;;7.22;;
79143;SDS011;68551;47.484;19.092;2023-06-22T16:23:21;13.27;;;7.10;;
79143;SDS011;68551;47.484;19.092;2023-06-22T16:26:23;9.90;;;7.13;;
79143;SDS011;68551;47.484;19.092;2023-06-22T16:29:26;8.20;;;7.10;;
79143;SDS011;68551;47.484;19.092;2023-06-22T16:32:33;9.98;;;7.22;;
79143;SDS011;68551;47.484;19.092;2023-06-22T16:35:35;12.40;;;7.10;;
79143;SDS011;68551;47.484;19.092;2023-06-22T16:38:42;9.32;;;6.38;;
79143;SDS011;68551;47.484;19.092;2023-06-22T16:41:51;10.35;;;6.50;;
79143;SDS011;68551;47.484;19.092;2023-06-22T16:44:54;9.30;;;6.68;;
79143;SDS011;68551;47.484;19.092;2023-06-22T16:48:01;9.88;;;7.43;;
79143;SDS011;68551;47.484;19.092;2023-06-22T16:51:06;11.45;;;6.80;;
79143;SDS011;68551;47.484;19.092;2023-06-22T16:54:08;10.93;;;7.20;;
79143;SDS011;68551;47.484;19.092;2023-06-22T16:57:11;9.15;;;6.75;;
79143;SDS011;68551;47.484;19.092;2023-06-22T17:00:16;10.13;;;6.88;;
79143;SDS011;68551;47.484;19.092;2023-06-22T17:03:27;8.70;;;7.13;;
79143;SDS011;68551;47.484;19.092;2023-06-22T17:06:39;12.10;;;7.55;;
79143;SDS011;68551;47.484;19.092;2023-06-22T17:09:48;8.18;;;6.60;;
79143;SDS011;68551;47.484;19.092;2023-06-22T17:12:57;9.85;;;7.28;;
79143;SDS011;68551;47.484;19.092;2023-06-22T17:16:00;11.68;;;7.30;;
79143;SDS011;68551;47.484;19.092;2023-06-22T17:19:06;10.88;;;7.70;;
79143;SDS011;68551;47.484;19.092;2023-06-22T17:22:10;10.65;;;7.43;;
79143;SDS011;68551;47.484;19.092;2023-06-22T17:25:14;10.18;;;7.07;;
79143;SDS011;68551;47.484;19.092;2023-06-22T17:28:17;9.35;;;7.72;;
79143;SDS011;68551;47.484;19.092;2023-06-22T17:31:28;12.30;;;7.15;;
79143;SDS011;68551;47.484;19.092;2023-06-22T17:34:41;13.90;;;7.32;;
79143;SDS011;68551;47.484;19.092;2023-06-22T17:37:51;10.73;;;8.00;;
79143;SDS011;68551;47.484;19.092;2023-06-22T17:41:01;12.27;;;7.68;;
79143;SDS011;68551;47.484;19.092;2023-06-22T17:44:30;9.93;;;7.22;;
79143;SDS011;68551;47.484;19.092;2023-06-22T17:47:37;11.35;;;6.50;;
79143;SDS011;68551;47.484;19.092;2023-06-22T17:50:45;11.23;;;7.28;;
79143;SDS011;68551;47.484;19.092;2023-06-22T17:53:48;9.35;;;6.78;;
79143;SDS011;68551;47.484;19.092;2023-06-22T17:56:55;10.48;;;7.13;;
79143;SDS011;68551;47.484;19.092;2023-06-22T17:59:59;13.57;;;8.32;;
79143;SDS011;68551;47.484;19.092;2023-06-22T18:03:02;10.95;;;7.97;;
79143;SDS011;68551;47.484;19.092;2023-06-22T18:06:07;9.85;;;7.38;;
79143;SDS011;68551;47.484;19.092;2023-06-22T18:09:10;10.48;;;7.82;;
79143;SDS011;68551;47.484;19.092;2023-06-22T18:12:14;9.55;;;7.38;;
79143;SDS011;68551;47.484;19.092;2023-06-22T18:15:19;10.48;;;7.88;;
79143;SDS011;68551;47.484;19.092;2023-06-22T18:18:23;12.18;;;7.32;;
79143;SDS011;68551;47.484;19.092;2023-06-22T18:21:35;11.68;;;7.68;;
79143;SDS011;68551;47.484;19.092;2023-06-22T18:24:41;10.52;;;7.60;;
79143;SDS011;68551;47.484;19.092;2023-06-22T18:27:45;11.35;;;7.97;;
79143;SDS011;68551;47.484;19.092;2023-06-22T18:30:51;14.98;;;10.98;;
79143;SDS011;68551;47.484;19.092;2023-06-22T18:33:56;9.95;;;7.70;;
79143;SDS011;68551;47.484;19.092;2023-06-22T18:37:08;9.57;;;7.57;;
79143;SDS011;68551;47.484;19.092;2023-06-22T18:40:16;12.35;;;8.55;;
79143;SDS011;68551;47.484;19.092;2023-06-22T18:43:22;11.15;;;8.50;;
79143;SDS011;68551;47.484;19.092;2023-06-22T18:46:32;14.77;;;8.45;;
79143;SDS011;68551;47.484;19.092;2023-06-22T18:52:41;11.25;;;7.75;;
79143;SDS011;68551;47.484;19.092;2023-06-22T18:55:44;10.05;;;7.22;;
79143;SDS011;68551;47.484;19.092;2023-06-22T18:58:58;9.02;;;6.88;;